sensor_id;sensor_type;location;lat;lon;timestamp;P1;P2;P0
82823;PMS5003;72575;46.834;-71.234;2023-10-19T00:00:31;25.75;25;16.75
82823;PMS5003;72575;46.834;-71.234;2023-10-19T00:02:55;26.65;25.55;16.3
82823;PMS5003;72575;46.834;-71.234;2023-10-19T00:05:20;31.29;30.48;17.43
82823;PMS5003;72575;46.834;-71.234;2023-10-19T00:07:47;33.76;31.1;18.14
82823;PMS5003;72575;46.834;-71.234;2023-10-19T00:10:15;33.45;31.1;17.35
82823;PMS5003;72575;46.834;-71.234;2023-10-19T00:12:37;34;32;19.43
82823;PMS5003;72575;46.834;-71.234;2023-10-19T00:15:05;29.52;28.9;18
82823;PMS5003;72575;46.834;-71.234;2023-10-19T00:17:30;33.05;30.25;18.25
82823;PMS5003;72575;46.834;-71.234;2023-10-19T00:20:00;27.1;26.55;17.05
82823;PMS5003;72575;46.834;-71.234;2023-10-19T00:22:21;35.8;33.35;20.15
82823;PMS5003;72575;46.834;-71.234;2023-10-19T00:24:48;30.15;28.15;18.15
82823;PMS5003;72575;46.834;-71.234;2023-10-19T00:27:16;34.26;31.63;19.05
82823;PMS5003;72575;46.834;-71.234;2023-10-19T00:29:41;34.25;32;18.3
82823;PMS5003;72575;46.834;-71.234;2023-10-19T00:32:03;35.65;32.65;20.25
82823;PMS5003;72575;46.834;-71.234;2023-10-19T00:34:29;32.55;31.4;16.7
82823;PMS5003;72575;46.834;-71.234;2023-10-19T00:36:53;38.26;34.84;20.37
82823;PMS5003;72575;46.834;-71.234;2023-10-19T00:39:22;32;30.25;18.9
82823;PMS5003;72575;46.834;-71.234;2023-10-19T00:41:45;33.45;31.95;18.35
82823;PMS5003;72575;46.834;-71.234;2023-10-19T00:44:11;33.05;31;17.55
82823;PMS5003;72575;46.834;-71.234;2023-10-19T00:46:39;32.42;28.68;17.53
82823;PMS5003;72575;46.834;-71.234;2023-10-19T00:49:02;26.7;26.15;17.25
82823;PMS5003;72575;46.834;-71.234;2023-10-19T00:51:29;28.25;27;17.65
82823;PMS5003;72575;46.834;-71.234;2023-10-19T00:53:52;35.45;33.1;21
82823;PMS5003;72575;46.834;-71.234;2023-10-19T00:56:20;31.2;30.7;21.05
82823;PMS5003;72575;46.834;-71.234;2023-10-19T00:58:45;29.81;28.67;19.57
82823;PMS5003;72575;46.834;-71.234;2023-10-19T01:01:10;33.35;32.15;18.05
82823;PMS5003;72575;46.834;-71.234;2023-10-19T01:03:35;32.9;30.35;18.65
82823;PMS5003;72575;46.834;-71.234;2023-10-19T01:06:01;28.95;27.55;16.65
82823;PMS5003;72575;46.834;-71.234;2023-10-19T01:08:24;35.63;31.32;18.47
82823;PMS5003;72575;46.834;-71.234;2023-10-19T01:10:52;24.25;24.25;15.55
82823;PMS5003;72575;46.834;-71.234;2023-10-19T01:13:16;26.16;25.32;16.89
82823;PMS5003;72575;46.834;-71.234;2023-10-19T01:15:41;30;29.67;17.86
82823;PMS5003;72575;46.834;-71.234;2023-10-19T01:18:08;33.11;30.37;15.89
82823;PMS5003;72575;46.834;-71.234;2023-10-19T01:20:48;31.6;28.05;15.9
82823;PMS5003;72575;46.834;-71.234;2023-10-19T01:23:10;35.48;32.19;18
82823;PMS5003;72575;46.834;-71.234;2023-10-19T01:25:25;30.15;28.2;18
82823;PMS5003;72575;46.834;-71.234;2023-10-19T01:27:52;31.75;30.35;18.8
82823;PMS5003;72575;46.834;-71.234;2023-10-19T01:30:16;33.05;31.1;17.71
82823;PMS5003;72575;46.834;-71.234;2023-10-19T01:32:41;28.24;27.62;19
82823;PMS5003;72575;46.834;-71.234;2023-10-19T01:35:07;36.15;33.25;19.2
82823;PMS5003;72575;46.834;-71.234;2023-10-19T01:37:32;25.15;24.45;15.95
82823;PMS5003;72575;46.834;-71.234;2023-10-19T01:39:59;30.3;30.05;17.5
82823;PMS5003;72575;46.834;-71.234;2023-10-19T01:42:24;26.5;26.05;15.6
82823;PMS5003;72575;46.834;-71.234;2023-10-19T01:44:48;30.55;29.4;16.95
82823;PMS5003;72575;46.834;-71.234;2023-10-19T01:47:13;36.2;32.9;16.95
82823;PMS5003;72575;46.834;-71.234;2023-10-19T01:49:40;32.81;31.19;18.57
82823;PMS5003;72575;46.834;-71.234;2023-10-19T01:52:07;33.24;31.14;18.14
82823;PMS5003;72575;46.834;-71.234;2023-10-19T01:54:32;35.67;31.76;16.76
82823;PMS5003;72575;46.834;-71.234;2023-10-19T01:56:57;30.6;28.95;17.95
82823;PMS5003;72575;46.834;-71.234;2023-10-19T01:59:23;27.35;26.2;16.4
82823;PMS5003;72575;46.834;-71.234;2023-10-19T02:01:48;29.2;26.6;15.75
82823;PMS5003;72575;46.834;-71.234;2023-10-19T02:04:12;28.9;28.9;17.15
82823;PMS5003;72575;46.834;-71.234;2023-10-19T02:06:40;31.71;29.62;18.43
82823;PMS5003;72575;46.834;-71.234;2023-10-19T02:09:04;30.85;28.95;16.4
82823;PMS5003;72575;46.834;-71.234;2023-10-19T02:11:29;30.86;28.38;17.86
82823;PMS5003;72575;46.834;-71.234;2023-10-19T02:13:56;35.58;32.42;18
82823;PMS5003;72575;46.834;-71.234;2023-10-19T02:16:20;27.76;26.67;17.43
82823;PMS5003;72575;46.834;-71.234;2023-10-19T02:18:46;34.53;32;17.84
82823;PMS5003;72575;46.834;-71.234;2023-10-19T02:21:12;31.6;29;16.25
82823;PMS5003;72575;46.834;-71.234;2023-10-19T02:23:37;27.67;26.1;16.9
82823;PMS5003;72575;46.834;-71.234;2023-10-19T02:26:03;32.75;30.65;16.15
82823;PMS5003;72575;46.834;-71.234;2023-10-19T02:28:29;31.25;28.6;18.35
82823;PMS5003;72575;46.834;-71.234;2023-10-19T02:30:53;31.58;29.89;16.58
82823;PMS5003;72575;46.834;-71.234;2023-10-19T02:33:18;29.5;29.05;17.2
82823;PMS5003;72575;46.834;-71.234;2023-10-19T02:35:43;24.85;23.05;13.75
82823;PMS5003;72575;46.834;-71.234;2023-10-19T02:38:07;32.15;29.3;17.75
82823;PMS5003;72575;46.834;-71.234;2023-10-19T02:40:34;33.75;32.05;16.6
82823;PMS5003;72575;46.834;-71.234;2023-10-19T02:43:00;29.5;27;15.75
82823;PMS5003;72575;46.834;-71.234;2023-10-19T02:45:27;31.3;28.55;16.5
82823;PMS5003;72575;46.834;-71.234;2023-10-19T02:47:50;34.3;31.15;16.8
82823;PMS5003;72575;46.834;-71.234;2023-10-19T02:50:16;25.8;25.8;18.75
82823;PMS5003;72575;46.834;-71.234;2023-10-19T02:52:40;32.35;29.8;17.15
82823;PMS5003;72575;46.834;-71.234;2023-10-19T02:55:07;34.05;31.45;19.45
82823;PMS5003;72575;46.834;-71.234;2023-10-19T02:57:34;28.14;27.67;16.52
82823;PMS5003;72575;46.834;-71.234;2023-10-19T02:59:57;33.75;29.9;18.55
82823;PMS5003;72575;46.834;-71.234;2023-10-19T03:02:23;36.15;33.4;20.6
82823;PMS5003;72575;46.834;-71.234;2023-10-19T03:04:50;28.25;27.8;17
82823;PMS5003;72575;46.834;-71.234;2023-10-19T03:07:13;34.8;32.85;19.85
82823;PMS5003;72575;46.834;-71.234;2023-10-19T03:09:49;36;32.76;18.71
82823;PMS5003;72575;46.834;-71.234;2023-10-19T03:12:10;31.84;29.84;19.11
82823;PMS5003;72575;46.834;-71.234;2023-10-19T03:14:31;32.1;30.24;20.19
82823;PMS5003;72575;46.834;-71.234;2023-10-19T03:16:56;33.25;31.45;19.95
82823;PMS5003;72575;46.834;-71.234;2023-10-19T03:19:23;30.74;28;19.63
82823;PMS5003;72575;46.834;-71.234;2023-10-19T03:21:49;34.47;32.37;18.63
82823;PMS5003;72575;46.834;-71.234;2023-10-19T03:24:13;24.9;23.25;16.55
82823;PMS5003;72575;46.834;-71.234;2023-10-19T03:26:43;28.45;28.25;19.7
82823;PMS5003;72575;46.834;-71.234;2023-10-19T03:29:03;36.55;33.7;18.6
82823;PMS5003;72575;46.834;-71.234;2023-10-19T03:31:31;28.27;28.05;16.95
82823;PMS5003;72575;46.834;-71.234;2023-10-19T03:33:54;33;30.63;18.47
82823;PMS5003;72575;46.834;-71.234;2023-10-19T03:36:20;33.25;30.35;19
82823;PMS5003;72575;46.834;-71.234;2023-10-19T03:38:44;36.84;33.47;20.05
82823;PMS5003;72575;46.834;-71.234;2023-10-19T03:41:11;35.7;31.35;19.1
82823;PMS5003;72575;46.834;-71.234;2023-10-19T03:43:35;38.7;33.95;19.35
82823;PMS5003;72575;46.834;-71.234;2023-10-19T03:46:06;30.76;29.9;19.48
82823;PMS5003;72575;46.834;-71.234;2023-10-19T03:48:27;36.48;32.24;18.1
82823;PMS5003;72575;46.834;-71.234;2023-10-19T03:50:52;31.5;30.75;18.25
82823;PMS5003;72575;46.834;-71.234;2023-10-19T03:53:18;33.9;31.9;18.67
82823;PMS5003;72575;46.834;-71.234;2023-10-19T03:55:44;33.26;31.47;17.11
82823;PMS5003;72575;46.834;-71.234;2023-10-19T03:58:07;31.05;29.8;16.65
82823;PMS5003;72575;46.834;-71.234;2023-10-19T04:00:33;29;27.57;16.9
82823;PMS5003;72575;46.834;-71.234;2023-10-19T04:02:58;30.15;28.75;17.1
82823;PMS5003;72575;46.834;-71.234;2023-10-19T04:05:26;28.14;26.67;17.05
82823;PMS5003;72575;46.834;-71.234;2023-10-19T04:07:50;20.5;20.1;12.9
82823;PMS5003;72575;46.834;-71.234;2023-10-19T04:10:30;20.45;18.15;11
82823;PMS5003;72575;46.834;-71.234;2023-10-19T04:12:42;18.95;18.95;11.2
82823;PMS5003;72575;46.834;-71.234;2023-10-19T04:15:10;21.05;20.45;11.8
82823;PMS5003;72575;46.834;-71.234;2023-10-19T04:17:32;19.75;19.25;11.8
82823;PMS5003;72575;46.834;-71.234;2023-10-19T04:19:55;15.57;15;10.05
82823;PMS5003;72575;46.834;-71.234;2023-10-19T04:22:27;19.86;17.64;10.68
82823;PMS5003;72575;46.834;-71.234;2023-10-19T04:24:50;17.86;16.45;10
82823;PMS5003;72575;46.834;-71.234;2023-10-19T04:27:16;18;17.45;9.8
82823;PMS5003;72575;46.834;-71.234;2023-10-19T04:29:43;15.48;15;9.67
82823;PMS5003;72575;46.834;-71.234;2023-10-19T04:32:07;20;17.8;10.05
82823;PMS5003;72575;46.834;-71.234;2023-10-19T04:34:32;13.2;13;9.15
82823;PMS5003;72575;46.834;-71.234;2023-10-19T04:36:59;14.52;14.52;9.24
82823;PMS5003;72575;46.834;-71.234;2023-10-19T04:39:22;12.77;12.5;8.95
82823;PMS5003;72575;46.834;-71.234;2023-10-19T04:41:47;11.9;11.05;7.38
82823;PMS5003;72575;46.834;-71.234;2023-10-19T04:44:15;14.29;13.14;8.24
82823;PMS5003;72575;46.834;-71.234;2023-10-19T04:46:38;11.71;11.62;7.19
82823;PMS5003;72575;46.834;-71.234;2023-10-19T04:49:04;14.67;13.81;8.24
82823;PMS5003;72575;46.834;-71.234;2023-10-19T04:51:31;12.62;11.9;7.38
82823;PMS5003;72575;46.834;-71.234;2023-10-19T04:53:55;12.62;12.05;7
82823;PMS5003;72575;46.834;-71.234;2023-10-19T04:56:22;12.36;12.36;7.73
82823;PMS5003;72575;46.834;-71.234;2023-10-19T04:58:46;13.9;12.62;7.62
82823;PMS5003;72575;46.834;-71.234;2023-10-19T05:01:12;12.9;12.1;8.33
82823;PMS5003;72575;46.834;-71.234;2023-10-19T05:03:35;12.19;11.52;8
82823;PMS5003;72575;46.834;-71.234;2023-10-19T05:06:03;12.19;11.52;7.9
82823;PMS5003;72575;46.834;-71.234;2023-10-19T05:08:28;12.33;12;8
82823;PMS5003;72575;46.834;-71.234;2023-10-19T05:10:54;12;11.62;7.38
82823;PMS5003;72575;46.834;-71.234;2023-10-19T05:13:18;11.27;10.91;6.09
82823;PMS5003;72575;46.834;-71.234;2023-10-19T05:15:45;11;10.71;7.19
82823;PMS5003;72575;46.834;-71.234;2023-10-19T05:18:11;15.29;13.81;8.76
82823;PMS5003;72575;46.834;-71.234;2023-10-19T05:20:34;11.43;11.33;7.33
82823;PMS5003;72575;46.834;-71.234;2023-10-19T05:23:00;9.38;9.14;6.52
82823;PMS5003;72575;46.834;-71.234;2023-10-19T05:25:26;13.05;11.86;8.62
82823;PMS5003;72575;46.834;-71.234;2023-10-19T05:27:50;14.52;12.52;6.48
82823;PMS5003;72575;46.834;-71.234;2023-10-19T05:30:16;12.59;12.14;9.18
82823;PMS5003;72575;46.834;-71.234;2023-10-19T05:32:43;13.67;13.67;8.38
82823;PMS5003;72575;46.834;-71.234;2023-10-19T05:35:08;13.81;13.67;8.81
82823;PMS5003;72575;46.834;-71.234;2023-10-19T05:37:32;12.52;12.52;8.67
82823;PMS5003;72575;46.834;-71.234;2023-10-19T05:39:57;10.57;10.14;7
82823;PMS5003;72575;46.834;-71.234;2023-10-19T05:42:22;12.43;12.43;7.9
82823;PMS5003;72575;46.834;-71.234;2023-10-19T05:45:01;10.82;10.82;6.95
82823;PMS5003;72575;46.834;-71.234;2023-10-19T05:47:26;15.81;14.67;8.1
82823;PMS5003;72575;46.834;-71.234;2023-10-19T05:49:50;14.14;13.14;8.52
82823;PMS5003;72575;46.834;-71.234;2023-10-19T05:52:16;15;15;7.5
82823;PMS5003;72575;46.834;-71.234;2023-10-19T05:54:43;13.86;13.38;7.52
82823;PMS5003;72575;46.834;-71.234;2023-10-19T05:57:07;11.24;10.9;7.24
82823;PMS5003;72575;46.834;-71.234;2023-10-19T05:59:32;13.55;13.15;7.1
82823;PMS5003;72575;46.834;-71.234;2023-10-19T06:01:58;11.95;11.95;7.23
82823;PMS5003;72575;46.834;-71.234;2023-10-19T06:04:25;12.62;11.33;7
82823;PMS5003;72575;46.834;-71.234;2023-10-19T06:06:51;14;11.82;7.23
82823;PMS5003;72575;46.834;-71.234;2023-10-19T06:09:15;11.86;11.05;7.05
82823;PMS5003;72575;46.834;-71.234;2023-10-19T06:11:41;12.81;12.81;7.95
82823;PMS5003;72575;46.834;-71.234;2023-10-19T06:14:06;11;10.9;7.52
82823;PMS5003;72575;46.834;-71.234;2023-10-19T06:16:29;11.14;11.14;8
82823;PMS5003;72575;46.834;-71.234;2023-10-19T06:18:58;13.59;13.09;7.95
82823;PMS5003;72575;46.834;-71.234;2023-10-19T06:21:22;11.38;11.38;8.1
82823;PMS5003;72575;46.834;-71.234;2023-10-19T06:23:49;15.05;14.45;8.27
82823;PMS5003;72575;46.834;-71.234;2023-10-19T06:26:14;9.86;9.67;6.19
82823;PMS5003;72575;46.834;-71.234;2023-10-19T06:28:38;13.86;13.86;8.95
82823;PMS5003;72575;46.834;-71.234;2023-10-19T06:31:03;12.86;12.57;9
82823;PMS5003;72575;46.834;-71.234;2023-10-19T06:33:29;18.67;17.67;9.29
82823;PMS5003;72575;46.834;-71.234;2023-10-19T06:35:55;12.64;12.45;7.64
82823;PMS5003;72575;46.834;-71.234;2023-10-19T06:38:22;13.19;12.81;7.71
82823;PMS5003;72575;46.834;-71.234;2023-10-19T06:40:47;15;14.81;8.76
82823;PMS5003;72575;46.834;-71.234;2023-10-19T06:43:11;11.57;11.57;8.57
82823;PMS5003;72575;46.834;-71.234;2023-10-19T06:45:37;15.43;13.62;8
82823;PMS5003;72575;46.834;-71.234;2023-10-19T06:48:03;9.48;9.48;6.76
82823;PMS5003;72575;46.834;-71.234;2023-10-19T06:50:29;14.57;14.57;8.9
82823;PMS5003;72575;46.834;-71.234;2023-10-19T06:52:54;14.45;13.82;8.59
82823;PMS5003;72575;46.834;-71.234;2023-10-19T06:55:18;10.33;10.33;7.38
82823;PMS5003;72575;46.834;-71.234;2023-10-19T06:57:45;12.48;11.67;8
82823;PMS5003;72575;46.834;-71.234;2023-10-19T07:00:11;11;10.9;7.9
82823;PMS5003;72575;46.834;-71.234;2023-10-19T07:02:34;11.38;11.05;6.95
82823;PMS5003;72575;46.834;-71.234;2023-10-19T07:05:00;11.42;10.89;6.74
82823;PMS5003;72575;46.834;-71.234;2023-10-19T07:07:24;11.81;11.81;7.67
82823;PMS5003;72575;46.834;-71.234;2023-10-19T07:09:53;13.77;13.77;8.82
82823;PMS5003;72575;46.834;-71.234;2023-10-19T07:12:16;13.19;13.19;8.1
82823;PMS5003;72575;46.834;-71.234;2023-10-19T07:14:42;12;12;8
82823;PMS5003;72575;46.834;-71.234;2023-10-19T07:17:07;15.52;14.76;8.24
82823;PMS5003;72575;46.834;-71.234;2023-10-19T07:19:32;17.8;16.95;8.9
82823;PMS5003;72575;46.834;-71.234;2023-10-19T07:21:58;13.52;13.52;10.1
82823;PMS5003;72575;46.834;-71.234;2023-10-19T07:24:24;16.71;15.43;8.9
82823;PMS5003;72575;46.834;-71.234;2023-10-19T07:26:49;19.19;17;9.14
82823;PMS5003;72575;46.834;-71.234;2023-10-19T07:29:14;15.8;15.4;8.95
82823;PMS5003;72575;46.834;-71.234;2023-10-19T07:31:40;13;13;7.62
82823;PMS5003;72575;46.834;-71.234;2023-10-19T07:34:07;12;10.9;7.52
82823;PMS5003;72575;46.834;-71.234;2023-10-19T07:36:29;14.9;14.48;8.24
82823;PMS5003;72575;46.834;-71.234;2023-10-19T07:38:57;11.24;10.81;6.95
82823;PMS5003;72575;46.834;-71.234;2023-10-19T07:41:21;12.62;12.38;8.38
82823;PMS5003;72575;46.834;-71.234;2023-10-19T07:43:47;12.09;12.05;8
82823;PMS5003;72575;46.834;-71.234;2023-10-19T07:46:11;11.05;10.52;6.38
82823;PMS5003;72575;46.834;-71.234;2023-10-19T07:48:38;13.19;12.86;7.67
82823;PMS5003;72575;46.834;-71.234;2023-10-19T07:51:02;13.81;13.29;7.9
82823;PMS5003;72575;46.834;-71.234;2023-10-19T07:53:29;15.57;14.76;7.71
82823;PMS5003;72575;46.834;-71.234;2023-10-19T07:55:52;14.75;14.5;7.85
82823;PMS5003;72575;46.834;-71.234;2023-10-19T07:58:18;15.2;15.05;8.05
82823;PMS5003;72575;46.834;-71.234;2023-10-19T08:00:45;11.95;11.91;7.45
82823;PMS5003;72575;46.834;-71.234;2023-10-19T08:03:10;12.38;12.33;7.76
82823;PMS5003;72575;46.834;-71.234;2023-10-19T08:05:36;14.33;12.95;8.19
82823;PMS5003;72575;46.834;-71.234;2023-10-19T08:08:01;13.19;12.1;8
82823;PMS5003;72575;46.834;-71.234;2023-10-19T08:10:27;12.24;12.1;7.67
82823;PMS5003;72575;46.834;-71.234;2023-10-19T08:12:51;12.62;11.57;8.19
82823;PMS5003;72575;46.834;-71.234;2023-10-19T08:15:17;12.62;11.24;7.95
82823;PMS5003;72575;46.834;-71.234;2023-10-19T08:17:43;12.09;12.09;8
82823;PMS5003;72575;46.834;-71.234;2023-10-19T08:20:10;11.24;11.24;7.62
82823;PMS5003;72575;46.834;-71.234;2023-10-19T08:22:33;12.38;12.1;6.76
82823;PMS5003;72575;46.834;-71.234;2023-10-19T08:25:00;12.52;12.33;7.76
82823;PMS5003;72575;46.834;-71.234;2023-10-19T08:27:23;11.81;11.57;6.9
82823;PMS5003;72575;46.834;-71.234;2023-10-19T08:29:50;13.29;12.57;8.1
82823;PMS5003;72575;46.834;-71.234;2023-10-19T08:32:14;12.95;12.67;7.95
82823;PMS5003;72575;46.834;-71.234;2023-10-19T08:34:41;13.82;13.55;7.59
82823;PMS5003;72575;46.834;-71.234;2023-10-19T08:37:05;15.52;14.71;8.81
82823;PMS5003;72575;46.834;-71.234;2023-10-19T08:39:31;13.29;13.19;8.67
82823;PMS5003;72575;46.834;-71.234;2023-10-19T08:41:55;10.76;10.52;8.1
82823;PMS5003;72575;46.834;-71.234;2023-10-19T08:44:21;17;16.58;9.37
82823;PMS5003;72575;46.834;-71.234;2023-10-19T08:46:48;14;14;7.65
82823;PMS5003;72575;46.834;-71.234;2023-10-19T08:49:11;14.24;12.86;7.19
82823;PMS5003;72575;46.834;-71.234;2023-10-19T08:51:40;11.55;11.55;8.5
82823;PMS5003;72575;46.834;-71.234;2023-10-19T08:54:02;14.57;13.43;8.67
82823;PMS5003;72575;46.834;-71.234;2023-10-19T08:56:30;16.52;15.86;8
82823;PMS5003;72575;46.834;-71.234;2023-10-19T08:58:55;14.71;13.43;8.19
82823;PMS5003;72575;46.834;-71.234;2023-10-19T09:12:29;15.95;15.45;7.9
82823;PMS5003;72575;46.834;-71.234;2023-10-19T09:12:39;13.41;12.5;8.68
82823;PMS5003;72575;46.834;-71.234;2023-10-19T09:13:06;13.64;13.05;8.36
82823;PMS5003;72575;46.834;-71.234;2023-10-19T09:13:23;13.5;12.86;7.27
82823;PMS5003;72575;46.834;-71.234;2023-10-19T09:13:48;13.68;13.68;7.91
82823;PMS5003;72575;46.834;-71.234;2023-10-19T09:15:10;15.25;14.65;8
82823;PMS5003;72575;46.834;-71.234;2023-10-19T09:17:30;12.52;12.52;8.9
82823;PMS5003;72575;46.834;-71.234;2023-10-19T09:19:56;12.1;11.33;8.1
82823;PMS5003;72575;46.834;-71.234;2023-10-19T09:22:23;13.52;12.9;7.62
82823;PMS5003;72575;46.834;-71.234;2023-10-19T09:24:50;12;12;7.86
82823;PMS5003;72575;46.834;-71.234;2023-10-19T09:27:16;15.1;15.1;9.76
82823;PMS5003;72575;46.834;-71.234;2023-10-19T09:29:40;16.75;16.3;7.65
82823;PMS5003;72575;46.834;-71.234;2023-10-19T09:32:07;13.86;12.76;7.81
82823;PMS5003;72575;46.834;-71.234;2023-10-19T09:34:32;11.52;11.48;8.76
82823;PMS5003;72575;46.834;-71.234;2023-10-19T09:36:58;15.67;14.14;9.57
82823;PMS5003;72575;46.834;-71.234;2023-10-19T09:39:23;12.05;12.05;7.38
82823;PMS5003;72575;46.834;-71.234;2023-10-19T09:41:49;11.68;11.41;8.18
82823;PMS5003;72575;46.834;-71.234;2023-10-19T09:44:13;12.86;12.86;9.19
82823;PMS5003;72575;46.834;-71.234;2023-10-19T09:46:39;16.05;16.05;9.05
82823;PMS5003;72575;46.834;-71.234;2023-10-19T09:49:03;13.38;13.33;8.86
82823;PMS5003;72575;46.834;-71.234;2023-10-19T09:51:29;14.14;14.14;8.62
82823;PMS5003;72575;46.834;-71.234;2023-10-19T09:53:57;15.48;15;9.1
82823;PMS5003;72575;46.834;-71.234;2023-10-19T09:56:20;16.24;14.67;7.48
82823;PMS5003;72575;46.834;-71.234;2023-10-19T09:58:45;11.68;11.68;7.82
82823;PMS5003;72575;46.834;-71.234;2023-10-19T10:01:10;12.48;12.1;6.81
82823;PMS5003;72575;46.834;-71.234;2023-10-19T10:03:46;14.43;14.43;8.81
82823;PMS5003;72575;46.834;-71.234;2023-10-19T10:06:03;11.62;11.05;7.95
82823;PMS5003;72575;46.834;-71.234;2023-10-19T10:08:38;16.24;15.52;8.76
82823;PMS5003;72575;46.834;-71.234;2023-10-19T10:10:52;13.52;10.76;7.62
82823;PMS5003;72575;46.834;-71.234;2023-10-19T10:13:36;17.9;17.6;8.6
82823;PMS5003;72575;46.834;-71.234;2023-10-19T10:15:44;12.41;12.41;8.91
82823;PMS5003;72575;46.834;-71.234;2023-10-19T10:18:12;14.9;13.33;8.43
82823;PMS5003;72575;46.834;-71.234;2023-10-19T10:20:46;13.24;13.14;9.1
82823;PMS5003;72575;46.834;-71.234;2023-10-19T10:23:30;12.48;12.48;7.48
82823;PMS5003;72575;46.834;-71.234;2023-10-19T10:25:26;15.24;13.62;7.48
82823;PMS5003;72575;46.834;-71.234;2023-10-19T10:27:51;13.48;13.48;9
82823;PMS5003;72575;46.834;-71.234;2023-10-19T10:30:14;13.19;13.19;7.9
82823;PMS5003;72575;46.834;-71.234;2023-10-19T10:32:45;14.64;14.64;8.68
82823;PMS5003;72575;46.834;-71.234;2023-10-19T10:35:08;16.8;16.55;9.05
82823;PMS5003;72575;46.834;-71.234;2023-10-19T10:37:33;19.67;18.83;8.22
82823;PMS5003;72575;46.834;-71.234;2023-10-19T10:39:59;13.43;13.29;8.24
82823;PMS5003;72575;46.834;-71.234;2023-10-19T10:42:24;13.62;13.62;8
82823;PMS5003;72575;46.834;-71.234;2023-10-19T10:44:48;18.37;18.26;8.95
82823;PMS5003;72575;46.834;-71.234;2023-10-19T10:47:15;14.81;14.24;10.38
82823;PMS5003;72575;46.834;-71.234;2023-10-19T10:49:55;14.36;13.55;9.23
82823;PMS5003;72575;46.834;-71.234;2023-10-19T10:52:04;18.74;18.11;9.42
82823;PMS5003;72575;46.834;-71.234;2023-10-19T10:54:29;14.38;14;8.1
82823;PMS5003;72575;46.834;-71.234;2023-10-19T10:56:54;19.63;18.58;9
82823;PMS5003;72575;46.834;-71.234;2023-10-19T10:59:21;15.29;14.43;9.67
82823;PMS5003;72575;46.834;-71.234;2023-10-19T11:01:46;14.19;14.19;8.76
82823;PMS5003;72575;46.834;-71.234;2023-10-19T11:04:12;12;11.52;8.05
82823;PMS5003;72575;46.834;-71.234;2023-10-19T11:06:47;18.76;18.76;9.1
82823;PMS5003;72575;46.834;-71.234;2023-10-19T11:09:09;12.9;12.48;7.62
82823;PMS5003;72575;46.834;-71.234;2023-10-19T11:11:26;16.24;14.95;9.19
82823;PMS5003;72575;46.834;-71.234;2023-10-19T11:13:52;17.7;17.55;9.85
82823;PMS5003;72575;46.834;-71.234;2023-10-19T11:16:21;18.19;16.38;9.52
82823;PMS5003;72575;46.834;-71.234;2023-10-19T11:18:42;19.29;18.14;10
82823;PMS5003;72575;46.834;-71.234;2023-10-19T11:21:10;13.81;13.81;9.1
82823;PMS5003;72575;46.834;-71.234;2023-10-19T11:23:35;15.77;15.77;9.55
82823;PMS5003;72575;46.834;-71.234;2023-10-19T11:25:59;16.24;16;10
82823;PMS5003;72575;46.834;-71.234;2023-10-19T11:28:26;17.48;17.48;10.24
82823;PMS5003;72575;46.834;-71.234;2023-10-19T11:30:50;20.47;18.79;9.16
82823;PMS5003;72575;46.834;-71.234;2023-10-19T11:33:15;18.95;18.85;9.65
82823;PMS5003;72575;46.834;-71.234;2023-10-19T11:35:40;17.38;16.43;9.52
82823;PMS5003;72575;46.834;-71.234;2023-10-19T11:38:07;16.86;16.81;9.1
82823;PMS5003;72575;46.834;-71.234;2023-10-19T11:40:33;19.38;17.62;9.76
82823;PMS5003;72575;46.834;-71.234;2023-10-19T11:42:59;20.65;18.95;9.65
82823;PMS5003;72575;46.834;-71.234;2023-10-19T11:45:24;18;16.9;11.62
82823;PMS5003;72575;46.834;-71.234;2023-10-19T11:47:47;17.95;17.33;10.33
82823;PMS5003;72575;46.834;-71.234;2023-10-19T11:50:15;18.62;16.9;11.33
82823;PMS5003;72575;46.834;-71.234;2023-10-19T11:52:40;22.48;19.86;11.81
82823;PMS5003;72575;46.834;-71.234;2023-10-19T11:55:03;19;17.95;11.19
82823;PMS5003;72575;46.834;-71.234;2023-10-19T11:57:29;19.82;19.64;9.41
82823;PMS5003;72575;46.834;-71.234;2023-10-19T11:59:55;23.43;21.57;11.62
82823;PMS5003;72575;46.834;-71.234;2023-10-19T12:02:22;20.38;19.48;10.14
82823;PMS5003;72575;46.834;-71.234;2023-10-19T12:04:47;16.81;16.1;9.76
82823;PMS5003;72575;46.834;-71.234;2023-10-19T12:07:11;22.05;21.38;10.57
82823;PMS5003;72575;46.834;-71.234;2023-10-19T12:09:36;20.33;19;11.24
82823;PMS5003;72575;46.834;-71.234;2023-10-19T12:12:03;25.21;24.68;13
82823;PMS5003;72575;46.834;-71.234;2023-10-19T12:14:30;23.14;22.14;13.77
82823;PMS5003;72575;46.834;-71.234;2023-10-19T12:16:54;20.63;18.79;10.16
82823;PMS5003;72575;46.834;-71.234;2023-10-19T12:19:20;22.29;22;11.76
82823;PMS5003;72575;46.834;-71.234;2023-10-19T12:21:46;19.4;19;10
82823;PMS5003;72575;46.834;-71.234;2023-10-19T12:24:09;17.76;17.48;10.76
82823;PMS5003;72575;46.834;-71.234;2023-10-19T12:26:34;17.1;16.38;9.43
82823;PMS5003;72575;46.834;-71.234;2023-10-19T12:29:02;19.05;19.05;11.76
82823;PMS5003;72575;46.834;-71.234;2023-10-19T12:31:27;19.86;18.14;9.76
82823;PMS5003;72575;46.834;-71.234;2023-10-19T12:33:51;24.68;23.79;12.58
82823;PMS5003;72575;46.834;-71.234;2023-10-19T12:36:17;19.71;19.52;11.76
82823;PMS5003;72575;46.834;-71.234;2023-10-19T12:38:43;19.1;18.38;11.52
82823;PMS5003;72575;46.834;-71.234;2023-10-19T12:41:06;16.29;15.62;9.67
82823;PMS5003;72575;46.834;-71.234;2023-10-19T12:43:32;21.1;20.35;10.95
82823;PMS5003;72575;46.834;-71.234;2023-10-19T12:46:12;21.55;20.75;10.9
82823;PMS5003;72575;46.834;-71.234;2023-10-19T12:48:35;21.33;20.9;11.38
82823;PMS5003;72575;46.834;-71.234;2023-10-19T12:51:01;18.67;18.24;11.86
82823;PMS5003;72575;46.834;-71.234;2023-10-19T12:53:27;18.71;18.71;11.38
82823;PMS5003;72575;46.834;-71.234;2023-10-19T12:55:51;22.29;21.57;11.14
82823;PMS5003;72575;46.834;-71.234;2023-10-19T12:58:16;18.48;18.48;11.67
82823;PMS5003;72575;46.834;-71.234;2023-10-19T13:00:41;18.29;17.24;11.05
82823;PMS5003;72575;46.834;-71.234;2023-10-19T13:03:08;18.32;17.64;10.14
82823;PMS5003;72575;46.834;-71.234;2023-10-19T13:05:33;17.86;17.86;11.62
82823;PMS5003;72575;46.834;-71.234;2023-10-19T13:07:59;23.55;21.2;11.45
82823;PMS5003;72575;46.834;-71.234;2023-10-19T13:10:27;21.55;20;11.65
82823;PMS5003;72575;46.834;-71.234;2023-10-19T13:12:50;18.52;18.52;10.95
82823;PMS5003;72575;46.834;-71.234;2023-10-19T13:15:15;19.24;19;11.9
82823;PMS5003;72575;46.834;-71.234;2023-10-19T13:17:40;19.2;18.85;10.5
82823;PMS5003;72575;46.834;-71.234;2023-10-19T13:20:07;20.1;20.1;10.7
82823;PMS5003;72575;46.834;-71.234;2023-10-19T13:22:32;18.62;17.62;9.1
82823;PMS5003;72575;46.834;-71.234;2023-10-19T13:24:58;20.19;19.9;10.9
82823;PMS5003;72575;46.834;-71.234;2023-10-19T13:27:22;13.86;13.86;9.1
82823;PMS5003;72575;46.834;-71.234;2023-10-19T13:29:47;17.52;17;10
82823;PMS5003;72575;46.834;-71.234;2023-10-19T13:32:13;18.33;17.33;11.24
82823;PMS5003;72575;46.834;-71.234;2023-10-19T13:34:37;15.9;15.9;9.9